Sacramento, California
Traffic Map
Current Weather Conditions
Sacramento, California
Clear
Clear
59°
Feels Like: 59°
Wind Chill: 59° Ceiling: Unl
Heat Index: 59° Visibility: 10mi
Dew Point: 39° Wind: 10mph
Humidity: 48% Direction: 240° (WSW)
Pressure: 30.02in Gusts: 0mph
Raw Report DataKSAC 020253Z 24009KT 10SM CLR 15/04 A3002 RMK AO2 SLP167 T01500039 55002
Traffic Incident Summary
Active as of:
Severity:
Category:
InformationThere was an issue retrieving the traffic information for this location. Please try a different location or try again shortly.
Advertisements
Track Severe Weather on mobile